Time;durP1;ratioP1;P1;durP2;ratioP2;P2;SDS_P1;SDS_P2;PMS_P1;PMS_P2;Temp;Humidity;BMP_temperature;BMP_pressure;BME280_temperature;BME280_humidity;BME280_pressure;Samples;Min_cycle;Max_cycle;Signal;HPM_P1;HPM_P2
2022/01/24 00:00:11;;;;;;;;;55.75;43.25;;;;;3.88;79.93;103026.53;5092523;27;45243;-68
2022/01/24 00:02:37;;;;;;;;;53.00;43.75;;;;;3.76;79.60;103010.69;5093685;27;46655;-68
2022/01/24 00:05:03;;;;;;;;;40.75;28.75;;;;;3.83;79.86;103017.75;5093845;27;45489;-69
2022/01/24 00:07:28;;;;;;;;;48.25;38.25;;;;;3.82;80.01;103016.00;5095643;27;45543;-68
2022/01/24 00:09:57;;;;;;;;;46.25;39.50;;;;;3.78;80.04;103021.97;5076395;27;45551;-68
2022/01/24 00:12:34;;;;;;;;;44.25;36.75;;;;;3.76;80.13;103026.28;5093396;27;46300;-69
2022/01/24 00:28:12;;;;;;;;;50.75;36.75;;;;;3.60;80.78;103003.34;5093091;27;45466;-68
2022/01/24 00:30:38;;;;;;;;;43.75;34.75;;;;;3.61;80.61;103015.53;5092468;27;45499;-68
2022/01/24 00:33:03;;;;;;;;;47.75;38.50;;;;;3.59;80.89;103005.06;5091167;27;46247;-68
2022/01/24 00:35:28;;;;;;;;;39.00;33.25;;;;;3.57;81.00;103014.56;5093148;27;45357;-68
2022/01/24 00:37:59;;;;;;;;;57.00;38.00;;;;;3.55;81.18;102999.78;5093590;27;45203;-68
2022/01/24 00:40:26;;;;;;;;;54.75;42.00;;;;;3.54;81.17;102995.44;5096063;27;45443;-68
2022/01/24 00:42:55;;;;;;;;;41.75;35.00;;;;;3.52;81.32;103000.59;5096642;27;46355;-68
2022/01/24 00:56:11;;;;;;;;;52.75;40.25;;;;;3.44;81.74;102996.06;5073766;28;45286;-68
2022/01/24 00:58:37;;;;;;;;;50.00;41.00;;;;;3.40;81.30;102990.81;5075403;28;45360;-68
2022/01/24 01:01:03;;;;;;;;;48.00;39.00;;;;;3.40;81.15;102992.53;5073761;28;45415;-68
2022/01/24 01:03:29;;;;;;;;;54.75;39.50;;;;;3.34;81.19;102984.56;5073420;28;45491;-68
2022/01/24 01:06:08;;;;;;;;;59.00;38.50;;;;;3.32;81.67;102981.94;5073878;28;45446;-68
2022/01/24 01:19:33;;;;;;;;;51.25;39.75;;;;;3.26;81.90;102984.41;5075572;28;45457;-68
2022/01/24 01:21:59;;;;;;;;;51.50;36.75;;;;;3.21;82.11;102983.41;5080731;27;45764;-68
2022/01/24 01:24:27;;;;;;;;;50.00;36.75;;;;;3.25;82.11;102986.97;5096673;27;45342;-68
2022/01/24 01:27:07;;;;;;;;;44.75;36.25;;;;;3.24;82.03;102985.22;5093159;27;45779;-69
2022/01/24 01:29:46;;;;;;;;;41.25;34.00;;;;;3.23;81.98;102986.03;5081734;27;45524;-68
2022/01/24 01:32:22;;;;;;;;;41.50;30.00;;;;;3.19;82.02;102981.66;5096406;27;45470;-68
2022/01/24 01:35:22;;;;;;;;;42.25;32.75;;;;;3.19;82.15;102982.53;5094045;27;45599;-68
2022/01/24 01:38:18;;;;;;;;;41.00;37.00;;;;;3.17;82.46;102968.59;5097959;27;45466;-68
2022/01/24 01:57:00;;;;;;;;;47.25;32.00;;;;;3.01;82.75;102961.28;5046449;28;45982;-68
2022/01/24 01:59:25;;;;;;;;;47.50;35.75;;;;;3.02;82.62;102973.44;5033776;28;45733;-68
2022/01/24 02:01:50;;;;;;;;;42.50;33.50;;;;;3.00;82.99;102967.31;5054045;28;45459;-68
2022/01/24 02:04:16;;;;;;;;;33.00;32.33;;;;;2.98;83.04;102967.31;5043849;28;47149;-68
2022/01/24 02:06:43;;;;;;;;;27.00;27.00;;;;;2.98;83.03;102972.50;5041503;28;50496;-68
2022/01/24 02:09:10;;;;;;;;;40.25;34.50;;;;;2.94;82.67;102968.06;5049595;28;45881;-68
2022/01/24 02:11:36;;;;;;;;;49.00;39.75;;;;;2.92;83.07;102966.25;5047997;28;45526;-68
2022/01/24 02:14:09;;;;;;;;;53.75;37.25;;;;;2.94;82.69;102982.78;5051114;28;45600;-68
2022/01/24 02:16:49;;;;;;;;;34.50;28.75;;;;;2.90;83.20;102979.22;5051307;28;47729;-68
2022/01/24 02:22:07;;;;;;;;;51.50;36.50;;;;;2.86;83.10;102975.66;5037483;28;45623;-68
2022/01/24 02:24:43;;;;;;;;;41.50;29.75;;;;;2.85;83.01;102970.44;5041928;28;45634;-68
2022/01/24 02:27:11;;;;;;;;;39.25;29.00;;;;;2.86;83.43;102970.44;5046895;28;45564;-68
2022/01/24 02:32:23;;;;;;;;;42.25;32.75;;;;;2.84;82.92;102969.56;5015297;28;45387;-68
2022/01/24 02:34:50;;;;;;;;;38.50;34.00;;;;;2.79;83.50;102955.56;5017120;28;45536;-68
2022/01/24 02:37:18;;;;;;;;;34.75;25.75;;;;;2.82;82.95;102963.44;5032555;28;46671;-68
2022/01/24 02:39:48;;;;;;;;;36.75;28.75;;;;;2.83;83.53;102966.94;5031185;28;45873;-68
2022/01/24 02:53:24;;;;;;;;;53.00;34.25;;;;;2.72;83.52;102950.22;5023745;28;45484;-68
2022/01/24 02:55:49;;;;;;;;;44.75;35.50;;;;;2.75;83.79;102950.25;5032896;28;45489;-68
2022/01/24 02:58:16;;;;;;;;;52.25;36.25;;;;;2.73;83.61;102946.75;5031597;28;46300;-68
2022/01/24 03:00:42;;;;;;;;;35.00;27.25;;;;;2.71;83.81;102938.91;5029405;28;45885;-68
2022/01/24 03:03:08;;;;;;;;;35.75;31.50;;;;;2.71;83.62;102931.13;5031154;28;45527;-68
2022/01/24 03:05:33;;;;;;;;;39.00;32.75;;;;;2.67;83.57;102925.84;5031999;28;45656;-68
2022/01/24 03:07:59;;;;;;;;;39.75;33.00;;;;;2.69;83.57;102937.13;5032430;28;45883;-68
2022/01/24 03:10:29;;;;;;;;;39.25;30.00;;;;;2.65;83.50;102930.97;5087064;27;45862;-69
2022/01/24 03:13:37;;;;;;;;;50.25;31.25;;;;;2.59;83.85;102913.53;5094507;27;45388;-68
2022/01/24 03:15:46;;;;;;;;;43.50;34.50;;;;;2.66;83.94;102927.53;5079131;27;45700;-68
2022/01/24 03:18:12;;;;;;;;;44.50;31.00;;;;;2.63;83.33;102924.00;5094710;27;45651;-68
2022/01/24 03:20:38;;;;;;;;;34.50;29.75;;;;;2.65;83.55;102919.72;5094323;27;45399;-68
2022/01/24 03:23:03;;;;;;;;;37.75;27.75;;;;;2.63;83.77;102924.88;5094559;27;45501;-68
2022/01/24 03:25:29;;;;;;;;;42.50;31.00;;;;;2.62;83.37;102930.94;5096438;27;45365;-68
2022/01/24 03:27:55;;;;;;;;;34.25;28.25;;;;;2.59;83.18;102929.09;5094118;27;45879;-68
2022/01/24 03:30:20;;;;;;;;;39.25;23.50;;;;;2.57;83.05;102928.22;5097949;27;45825;-68
2022/01/24 03:32:46;;;;;;;;;41.25;31.25;;;;;2.52;83.46;102927.22;5096386;27;45378;-68
2022/01/24 03:35:11;;;;;;;;;37.50;26.50;;;;;2.56;83.22;102935.97;5093461;27;45601;-68
2022/01/24 03:37:37;;;;;;;;;42.00;27.50;;;;;2.52;83.40;102934.13;5095168;27;46152;-68
2022/01/24 03:40:04;;;;;;;;;42.75;34.00;;;;;2.52;83.33;102929.81;5093922;27;45605;-68
2022/01/24 03:42:29;;;;;;;;;46.00;35.00;;;;;2.46;83.59;102921.00;5094010;27;45450;-68
2022/01/24 03:44:58;;;;;;;;;50.75;33.25;;;;;2.50;83.44;102921.09;5094298;27;45331;-68
2022/01/24 03:47:42;;;;;;;;;44.75;30.00;;;;;2.51;83.56;102917.69;5093806;27;47541;-68
2022/01/24 03:50:13;;;;;;;;;50.25;32.75;;;;;2.46;83.87;102915.81;5093297;27;47745;-68
2022/01/24 03:52:39;;;;;;;;;44.50;34.25;;;;;2.50;83.62;102928.00;5108169;27;45528;-68
2022/01/24 03:55:05;;;;;;;;;40.00;29.25;;;;;2.49;83.82;102921.94;5092884;27;45514;-68
2022/01/24 03:57:30;;;;;;;;;35.50;33.00;;;;;2.49;83.98;102923.66;5094011;27;46816;-68
2022/01/24 03:59:56;;;;;;;;;30.00;26.00;;;;;2.49;83.97;102918.47;5093515;27;45458;-68
2022/01/24 04:02:24;;;;;;;;;37.75;30.75;;;;;2.46;83.91;102905.44;5093907;27;45400;-68
2022/01/24 04:04:49;;;;;;;;;34.75;30.50;;;;;2.47;83.94;102912.38;5095431;27;45474;-68
2022/01/24 04:07:15;;;;;;;;;38.00;29.50;;;;;2.48;84.04;102912.41;5093246;27;45514;-68
2022/01/24 04:09:42;;;;;;;;;37.75;30.00;;;;;2.45;84.25;102908.84;5087512;27;45759;-68
2022/01/24 04:12:10;;;;;;;;;35.75;26.50;;;;;2.47;83.74;102914.97;5083742;27;45398;-68
2022/01/24 04:14:43;;;;;;;;;28.75;25.25;;;;;2.45;83.88;102904.53;5093346;27;45352;-68
2022/01/24 04:22:14;;;;;;;;;35.75;30.75;;;;;2.38;83.96;102906.94;5100901;27;45596;-68
2022/01/24 04:24:41;;;;;;;;;37.75;26.00;;;;;2.35;84.61;102906.03;5097992;27;45453;-68
2022/01/24 04:27:08;;;;;;;;;38.00;31.25;;;;;2.34;84.48;102896.47;5090784;27;47086;-68
2022/01/24 04:29:34;;;;;;;;;41.25;32.50;;;;;2.38;84.42;102904.34;5092211;27;45963;-68
2022/01/24 04:32:00;;;;;;;;;40.75;34.50;;;;;2.35;84.05;102902.56;5094014;27;45442;-68
2022/01/24 04:34:25;;;;;;;;;32.75;26.25;;;;;2.35;84.51;102905.16;5092880;27;45382;-68
2022/01/24 04:36:51;;;;;;;;;37.50;29.00;;;;;2.33;84.36;102910.28;5092477;27;45439;-68
2022/01/24 04:39:17;;;;;;;;;33.50;26.75;;;;;2.31;84.26;102909.38;5093389;27;45511;-68
2022/01/24 04:41:46;;;;;;;;;30.75;26.50;;;;;2.31;84.21;102906.78;5092594;27;45518;-68
2022/01/24 04:54:43;;;;;;;;;45.00;29.75;;;;;2.22;84.66;102903.06;5097236;27;45515;-68
2022/01/24 04:57:18;;;;;;;;;36.00;25.25;;;;;2.22;84.49;102903.06;5093080;27;46667;-68
2022/01/24 04:59:47;;;;;;;;;39.00;30.25;;;;;2.20;84.97;102910.81;5092168;27;45607;-68
2022/01/24 05:02:14;;;;;;;;;40.25;34.25;;;;;2.19;84.85;102909.03;5092827;27;45420;-68
2022/01/24 05:04:39;;;;;;;;;37.00;28.75;;;;;2.15;84.66;102893.38;5094511;27;45435;-68
2022/01/24 05:07:04;;;;;;;;;36.00;26.50;;;;;2.20;85.00;102904.75;5092716;27;46378;-68
2022/01/24 05:09:36;;;;;;;;;37.00;29.75;;;;;2.19;84.42;102903.84;5092918;27;45380;-68
2022/01/24 05:12:09;;;;;;;;;36.50;27.25;;;;;2.16;84.59;102900.31;5073901;27;45549;-68
2022/01/24 05:25:31;;;;;;;;;47.25;32.75;;;;;2.06;84.98;102906.97;5095919;27;45593;-68
2022/01/24 05:27:56;;;;;;;;;40.00;32.00;;;;;2.05;84.97;102913.00;5093915;27;49709;-68
2022/01/24 05:30:21;;;;;;;;;43.50;32.25;;;;;2.02;84.88;102902.53;5095820;27;45486;-68
2022/01/24 05:32:47;;;;;;;;;50.75;30.50;;;;;2.00;85.08;102910.28;5096630;27;45475;-68
2022/01/24 05:35:12;;;;;;;;;43.75;34.00;;;;;2.00;85.08;102899.03;5095593;27;45265;-68
2022/01/24 05:37:37;;;;;;;;;41.25;33.75;;;;;1.95;85.36;102901.50;5097731;27;45545;-68
2022/01/24 05:40:03;;;;;;;;;41.67;32.33;;;;;1.93;85.26;102898.00;5096003;27;45606;-68
2022/01/24 05:42:29;;;;;;;;;40.25;30.25;;;;;1.90;85.06;102897.91;5095274;27;45355;-68
2022/01/24 05:44:54;;;;;;;;;36.50;30.25;;;;;1.88;85.38;102896.09;5093891;27;45492;-68
2022/01/24 05:47:19;;;;;;;;;40.25;30.25;;;;;1.85;85.73;102898.63;5095936;27;46201;-67
2022/01/24 05:49:45;;;;;;;;;44.33;33.00;;;;;1.84;85.84;102887.38;5096547;27;61863;-68
2022/01/24 05:52:11;;;;;;;;;41.00;30.25;;;;;1.85;85.69;102899.50;5099344;27;45518;-68
2022/01/24 05:54:38;;;;;;;;;40.25;33.75;;;;;1.83;85.42;102896.88;5101071;27;45286;-68
2022/01/24 05:57:05;;;;;;;;;43.75;33.00;;;;;1.84;85.65;102902.91;5095418;27;46654;-68
2022/01/24 05:59:31;;;;;;;;;45.50;29.25;;;;;1.82;85.77;102900.25;5093707;27;45410;-68
2022/01/24 06:01:56;;;;;;;;;49.00;28.00;;;;;1.79;85.56;102892.41;5099884;27;45383;-68
2022/01/24 06:04:21;;;;;;;;;49.75;33.75;;;;;1.82;86.02;102904.56;5095334;27;45576;-68
2022/01/24 06:06:46;;;;;;;;;46.75;34.75;;;;;1.78;85.82;102898.44;5095221;27;45358;-68
2022/01/24 06:09:12;;;;;;;;;42.67;31.00;;;;;1.80;86.23;102896.75;5095061;27;53071;-68
2022/01/24 06:11:37;;;;;;;;;33.67;27.67;;;;;1.80;86.03;102903.66;5095826;27;45812;-68
2022/01/24 06:14:04;;;;;;;;;39.00;32.67;;;;;1.79;85.69;102905.38;5095576;27;45752;-68
2022/01/24 06:16:29;;;;;;;;;34.50;30.00;;;;;1.77;85.67;102901.84;5095882;27;46530;-68
2022/01/24 06:18:54;;;;;;;;;46.50;32.00;;;;;1.77;85.82;102901.84;5094849;27;45498;-68
2022/01/24 06:21:20;;;;;;;;;37.25;30.25;;;;;1.76;86.01;102901.81;5095127;27;45506;-68
2022/01/24 06:23:45;;;;;;;;;34.75;27.50;;;;;1.73;86.35;102894.84;5095352;27;45401;-68
2022/01/24 06:26:10;;;;;;;;;44.33;29.33;;;;;1.73;85.69;102894.84;5095080;27;45438;-68
2022/01/24 06:28:37;;;;;;;;;35.50;29.75;;;;;1.70;86.35;102897.34;5096882;27;45397;-68
2022/01/24 06:31:02;;;;;;;;;57.25;33.50;;;;;1.66;85.74;102898.09;5093482;27;45565;-68
2022/01/24 06:33:27;;;;;;;;;40.25;28.00;;;;;1.66;86.00;102908.44;5096763;27;45741;-68
2022/01/24 06:35:53;;;;;;;;;37.25;28.25;;;;;1.67;85.93;102909.31;5094258;27;45589;-68
2022/01/24 06:38:18;;;;;;;;;30.25;28.00;;;;;1.65;86.14;102909.28;5094573;27;45316;-68
2022/01/24 06:40:43;;;;;;;;;43.75;31.25;;;;;1.59;86.23;102901.34;5097396;27;45396;-67
2022/01/24 06:43:09;;;;;;;;;33.25;25.50;;;;;1.63;86.33;102910.09;5094963;27;45415;-68
2022/01/24 06:45:34;;;;;;;;;40.00;32.75;;;;;1.63;86.08;102905.78;5093271;27;46619;-68
2022/01/24 06:48:00;;;;;;;;;41.00;28.50;;;;;1.64;86.23;102910.13;5093790;27;46008;-68
2022/01/24 06:50:25;;;;;;;;;47.25;32.25;;;;;1.63;86.15;102904.91;5094708;27;45406;-68
2022/01/24 06:52:50;;;;;;;;;31.25;28.50;;;;;1.62;86.26;102914.41;5096545;27;45336;-68
2022/01/24 06:55:16;;;;;;;;;34.75;29.25;;;;;1.64;86.38;102915.31;5099995;27;46982;-68
2022/01/24 06:57:41;;;;;;;;;45.75;34.00;;;;;1.63;86.28;102917.88;5101040;27;45569;-68
2022/01/24 07:00:07;;;;;;;;;33.75;28.50;;;;;1.47;86.62;102888.03;5087024;27;45623;-68
2022/01/24 07:02:33;;;;;;;;;36.50;30.25;;;;;1.64;86.54;102919.63;5107473;27;45462;-68
2022/01/24 07:04:58;;;;;;;;;38.33;32.00;;;;;1.52;86.31;102908.06;5101009;27;45616;-68
2022/01/24 07:07:23;;;;;;;;;36.00;30.00;;;;;1.63;86.55;102915.28;5077030;27;45466;-67
2022/01/24 07:09:49;;;;;;;;;48.00;36.00;;;;;1.64;86.40;102917.03;5103569;27;45489;-68
2022/01/24 07:12:14;;;;;;;;;40.75;31.50;;;;;1.62;86.41;102917.00;5098348;27;48697;-68
2022/01/24 07:14:41;;;;;;;;;39.00;31.75;;;;;1.62;86.32;102914.41;5094196;27;45466;-67
2022/01/24 07:17:28;;;;;;;;;44.75;35.50;;;;;1.63;86.66;102918.75;5100334;27;45377;-68
2022/01/24 07:19:53;;;;;;;;;31.00;29.75;;;;;1.62;86.66;102921.28;5092654;27;45525;-67
2022/01/24 07:22:19;;;;;;;;;37.67;33.67;;;;;1.64;86.87;102924.81;5100868;27;62241;-68
2022/01/24 07:24:44;;;;;;;;;42.33;33.00;;;;;1.65;86.74;102923.97;5097768;27;63063;-68
2022/01/24 07:27:09;;;;;;;;;39.25;34.25;;;;;1.66;86.73;102923.13;5099243;27;45456;-68
2022/01/24 07:29:36;;;;;;;;;38.00;29.75;;;;;1.65;86.90;102922.25;5099228;27;45491;-69
2022/01/24 07:32:02;;;;;;;;;37.00;27.00;;;;;1.68;86.52;102921.47;5097290;27;45480;-68
2022/01/24 07:34:27;;;;;;;;;27.75;18.25;;;;;1.69;86.71;102928.41;5091025;27;45792;-68
2022/01/24 07:36:55;;;;;;;;;38.50;28.00;;;;;1.72;86.20;102919.03;5087535;27;45420;-68
2022/01/24 07:39:20;;;;;;;;;41.75;36.00;;;;;1.74;86.65;102926.81;5092745;27;45522;-68
2022/01/24 07:41:47;;;;;;;;;39.33;33.00;;;;;1.76;86.70;102926.03;5093139;27;45561;-68
2022/01/24 07:44:14;;;;;;;;;41.25;33.25;;;;;1.78;86.42;102919.19;5100011;27;46616;-68
2022/01/24 07:46:41;;;;;;;;;26.75;25.25;;;;;1.82;86.63;102920.13;5099544;27;45490;-68
2022/01/24 07:49:10;;;;;;;;;40.25;31.75;;;;;1.80;86.46;102909.72;5094557;27;45336;-68
2022/01/24 07:51:36;;;;;;;;;43.50;33.00;;;;;1.88;86.18;102920.31;5098473;27;45484;-68
2022/01/24 07:54:01;;;;;;;;;29.25;23.50;;;;;1.91;86.42;102915.22;5090128;27;46362;-68
2022/01/24 07:56:26;;;;;;;;;37.50;33.50;;;;;1.94;86.27;102920.50;5088970;27;47496;-68
2022/01/24 07:58:52;;;;;;;;;38.67;34.33;;;;;1.97;86.27;102923.16;5086600;27;45589;-68
2022/01/24 08:01:19;;;;;;;;;42.75;33.75;;;;;2.06;86.37;102931.19;5087749;27;45479;-68
2022/01/24 08:03:45;;;;;;;;;46.50;39.25;;;;;2.10;86.02;102926.97;5086918;27;45540;-68
2022/01/24 08:06:11;;;;;;;;;33.50;27.50;;;;;2.17;86.23;102939.25;5087867;27;45282;-68
2022/01/24 08:08:37;;;;;;;;;52.25;34.50;;;;;2.22;85.85;102936.78;5097225;27;45654;-68
2022/01/24 08:11:02;;;;;;;;;39.00;31.75;;;;;2.27;85.70;102940.38;5095106;27;45476;-69
2022/01/24 08:13:28;;;;;;;;;43.25;31.25;;;;;2.33;85.45;102930.16;5088392;27;46535;-68
2022/01/24 08:15:53;;;;;;;;;46.00;31.50;;;;;2.22;85.38;102911.72;5086684;27;45685;-68
2022/01/24 08:18:18;;;;;;;;;45.25;32.75;;;;;2.42;85.42;102937.31;5088727;27;51859;-68
2022/01/24 08:20:44;;;;;;;;;46.67;37.00;;;;;2.47;85.53;102938.31;5093017;27;45532;-68
2022/01/24 08:23:10;;;;;;;;;34.00;30.00;;;;;2.53;85.07;102943.66;5083536;27;45510;-68
2022/01/24 08:25:35;;;;;;;;;46.00;34.00;;;;;2.58;85.14;102936.88;5090764;27;45520;-68
2022/01/24 08:28:01;;;;;;;;;33.00;30.75;;;;;2.65;85.35;102938.78;5087238;27;45465;-68
2022/01/24 08:30:26;;;;;;;;;43.00;34.25;;;;;2.76;84.81;102947.69;5092769;27;45424;-68
2022/01/24 08:32:52;;;;;;;;;50.00;34.75;;;;;2.81;84.79;102940.91;5093007;27;45396;-68
2022/01/24 08:35:20;;;;;;;;;43.50;29.75;;;;;2.94;84.61;102947.28;5078230;27;46916;-68
2022/01/24 08:37:46;;;;;;;;;43.25;31.25;;;;;3.06;84.45;102952.75;5089316;27;45588;-68
2022/01/24 08:40:26;;;;;;;;;42.50;38.25;;;;;3.20;84.28;102947.03;5091738;27;45423;-68
2022/01/24 08:42:58;;;;;;;;;40.50;37.75;;;;;3.34;84.61;102943.00;5087677;27;47564;-68
2022/01/24 08:45:48;;;;;;;;;40.00;36.75;;;;;3.56;84.11;102954.75;5089990;27;45464;-68
2022/01/24 08:48:16;;;;;;;;;58.00;42.50;;;;;4.81;85.85;102951.94;5088788;27;45482;-68
2022/01/24 08:50:43;;;;;;;;;42.25;36.75;;;;;6.69;84.54;102950.84;5083918;27;45322;-68
2022/01/24 08:53:10;;;;;;;;;43.25;39.25;;;;;8.64;81.59;102948.25;5092383;27;46915;-68
2022/01/24 08:55:36;;;;;;;;;48.25;40.00;;;;;10.44;78.26;102938.97;5094898;27;45395;-68
2022/01/24 08:58:04;;;;;;;;;48.00;35.50;;;;;12.00;75.29;102935.56;5091736;27;45547;-68
2022/01/24 09:00:30;;;;;;;;;43.00;32.75;;;;;13.54;70.90;102936.53;5095294;27;45434;-68
2022/01/24 09:02:55;;;;;;;;;48.75;38.00;;;;;14.86;68.06;102931.72;5095200;27;45471;-68
2022/01/24 09:05:23;;;;;;;;;45.75;34.25;;;;;15.99;64.49;102933.88;5094495;27;45309;-68
2022/01/24 09:07:49;;;;;;;;;42.50;35.75;;;;;16.85;62.45;102937.28;5094441;27;45314;-69
2022/01/24 09:10:16;;;;;;;;;44.50;36.25;;;;;17.86;61.31;102940.75;5101761;27;45548;-68
2022/01/24 09:12:41;;;;;;;;;46.50;36.50;;;;;18.84;58.15;102939.44;5095875;27;46515;-68
2022/01/24 09:15:07;;;;;;;;;43.25;35.00;;;;;19.65;57.88;102939.41;5094862;27;45456;-68
2022/01/24 09:17:33;;;;;;;;;39.00;33.50;;;;;20.36;55.17;102939.59;5093928;27;45480;-68
2022/01/24 09:19:59;;;;;;;;;39.75;30.50;;;;;20.81;53.96;102928.41;5104382;27;45346;-68
2022/01/24 09:22:26;;;;;;;;;40.75;34.75;;;;;21.33;53.85;102935.56;5096708;27;45794;-69
2022/01/24 09:24:52;;;;;;;;;74.00;53.25;;;;;21.69;50.11;102940.72;5096021;27;45851;-69
2022/01/24 09:27:17;;;;;;;;;64.25;45.25;;;;;21.45;49.16;102937.56;5095398;27;46330;-69
2022/01/24 09:29:42;;;;;;;;;43.25;34.50;;;;;21.83;49.08;102939.97;5095957;27;45239;-68
2022/01/24 09:32:08;;;;;;;;;46.75;38.50;;;;;22.42;49.19;102930.38;5095621;27;45413;-69
2022/01/24 09:34:33;;;;;;;;;48.50;35.00;;;;;22.97;47.55;102932.50;5094067;27;45466;-69
2022/01/24 09:36:59;;;;;;;;;49.00;37.50;;;;;23.50;47.39;102935.50;5093461;27;45396;-69
2022/01/24 09:39:25;;;;;;;;;39.50;32.75;;;;;23.92;45.76;102938.16;5100107;27;45524;-69
2022/01/24 09:41:51;;;;;;;;;47.00;36.25;;;;;24.33;44.65;102933.72;5107377;27;46637;-69
2022/01/24 09:44:16;;;;;;;;;43.00;35.50;;;;;24.97;44.15;102934.75;5078090;27;45461;-69
2022/01/24 09:46:44;;;;;;;;;47.50;36.25;;;;;25.31;42.54;102935.09;5097149;27;45474;-69
2022/01/24 09:49:10;;;;;;;;;42.75;35.25;;;;;25.65;41.67;102941.66;5095387;27;45638;-69
2022/01/24 09:51:37;;;;;;;;;48.50;38.25;;;;;25.75;41.38;102938.22;5095332;27;46435;-69
2022/01/24 09:54:04;;;;;;;;;47.50;35.75;;;;;26.08;39.87;102944.78;5095126;27;45888;-69
2022/01/24 09:56:30;;;;;;;;;40.75;34.25;;;;;26.33;39.74;102948.34;5095063;27;45489;-70
2022/01/24 09:58:55;;;;;;;;;46.25;36.00;;;;;26.54;39.30;102944.91;5095848;27;45667;-71
2022/01/24 10:01:20;;;;;;;;;44.25;33.75;;;;;26.59;38.79;102951.81;5081880;27;46142;-69
2022/01/24 10:04:17;;;;;;;;;48.75;39.00;;;;;26.68;37.63;102951.97;5086241;27;45565;-69
2022/01/24 10:07:06;;;;;;;;;48.75;36.25;;;;;26.76;39.57;102954.91;5092478;27;45701;-69
2022/01/24 10:09:32;;;;;;;;;48.00;37.00;;;;;26.62;36.70;102948.84;5087199;27;45384;-69
2022/01/24 10:12:12;;;;;;;;;46.50;36.50;;;;;26.53;36.31;102939.66;5087582;27;46153;-69
2022/01/24 10:17:28;;;;;;;;;42.25;35.00;;;;;26.20;36.47;102954.63;5088770;27;45321;-69
2022/01/24 10:19:54;;;;;;;;;40.50;33.25;;;;;25.83;36.78;102952.94;5079940;27;45605;-67
2022/01/24 10:22:25;;;;;;;;;46.25;34.50;;;;;25.37;36.59;102951.69;5090545;27;45970;-67
2022/01/24 10:24:54;;;;;;;;;48.25;35.00;;;;;24.20;35.96;102949.78;5088812;27;45532;-68
2022/01/24 10:27:28;;;;;;;;;44.25;36.75;;;;;22.48;37.36;102959.47;5089438;27;45459;-67
2022/01/24 10:29:58;;;;;;;;;46.50;38.75;;;;;20.97;38.52;102954.34;5088551;27;45384;-67
2022/01/24 10:32:27;;;;;;;;;52.25;38.50;;;;;19.69;39.28;102953.50;5094145;27;46479;-67
2022/01/24 10:34:53;;;;;;;;;37.25;32.00;;;;;18.58;40.41;102945.84;5092646;27;45297;-67
2022/01/24 10:37:22;;;;;;;;;44.75;37.00;;;;;17.70;41.00;102957.28;5093815;27;45826;-67
2022/01/24 10:40:09;;;;;;;;;41.50;35.25;;;;;16.92;41.87;102956.56;5085744;27;45547;-67
2022/01/24 10:45:22;;;;;;;;;48.75;39.00;;;;;15.65;43.69;102952.56;5103559;27;45813;-67
2022/01/24 10:47:50;;;;;;;;;47.50;36.00;;;;;15.21;44.48;102949.34;5090842;27;45428;-66
2022/01/24 10:50:28;;;;;;;;;45.00;34.00;;;;;14.79;44.47;102946.03;5094562;27;45475;-67
2022/01/24 10:52:56;;;;;;;;;39.75;32.25;;;;;14.51;45.13;102948.47;5092408;27;46549;-66
2022/01/24 10:55:28;;;;;;;;;43.25;36.75;;;;;14.27;46.13;102942.84;5082637;27;45528;-66
2022/01/24 10:58:09;;;;;;;;;45.25;32.75;;;;;13.98;46.44;102930.28;5086786;27;45468;-66
2022/01/24 11:00:37;;;;;;;;;71.50;56.00;;;;;13.85;46.96;102934.09;5088651;27;45404;-68
2022/01/24 11:03:03;;;;;;;;;81.25;60.50;;;;;13.74;47.28;102928.19;5088536;27;46456;-70
2022/01/24 11:05:34;;;;;;;;;62.50;47.00;;;;;13.70;47.90;102935.31;5092833;27;45965;-68
2022/01/24 11:08:01;;;;;;;;;52.50;39.00;;;;;13.55;47.41;102928.56;5077594;27;45459;-68
2022/01/24 11:10:29;;;;;;;;;42.00;34.75;;;;;13.39;48.04;102926.25;5091473;27;45570;-68
2022/01/24 11:12:55;;;;;;;;;50.00;36.75;;;;;13.16;48.60;102926.69;5093147;27;45644;-68
2022/01/24 11:15:22;;;;;;;;;38.50;36.75;;;;;12.92;48.82;102928.84;5095750;27;45518;-69
2022/01/24 11:17:48;;;;;;;;;51.50;38.25;;;;;12.83;48.89;102925.50;5078412;27;45362;-69
2022/01/24 11:20:18;;;;;;;;;44.00;33.50;;;;;12.73;49.05;102919.50;5082844;27;45422;-70
2022/01/24 11:22:46;;;;;;;;;49.00;37.75;;;;;12.70;49.51;102919.56;5093090;27;46496;-69
2022/01/24 11:25:14;;;;;;;;;51.25;36.75;;;;;12.61;49.70;102914.44;5081353;27;45938;-70
2022/01/24 11:27:42;;;;;;;;;38.75;35.25;;;;;12.48;49.83;102924.34;5062768;28;45437;-73
2022/01/24 11:30:15;;;;;;;;;46.75;37.50;;;;;12.41;49.93;102923.53;5079344;27;45622;-68
2022/01/24 11:32:53;;;;;;;;;49.50;38.25;;;;;12.40;50.57;102919.16;5091687;27;45625;-69
2022/01/24 11:35:41;;;;;;;;;54.25;41.50;;;;;12.31;50.80;102911.41;5076475;27;45960;-68
2022/01/24 11:38:32;;;;;;;;;45.50;35.50;;;;;12.22;50.65;102916.84;5076612;27;45543;-67
2022/01/24 11:41:00;;;;;;;;;49.50;38.25;;;;;12.10;50.78;102911.72;5091539;27;45468;-67
2022/01/24 11:43:29;;;;;;;;;47.50;35.25;;;;;12.04;50.85;102911.81;5106092;27;47599;-67
2022/01/24 11:46:08;;;;;;;;;50.50;38.75;;;;;11.87;51.29;102898.88;5087171;27;45875;-67
2022/01/24 11:48:36;;;;;;;;;48.75;35.25;;;;;11.80;51.30;102891.91;5083377;27;45390;-67
2022/01/24 11:51:11;;;;;;;;;50.00;36.75;;;;;11.80;51.66;102903.34;5084201;27;45486;-67
2022/01/24 11:53:41;;;;;;;;;42.00;34.50;;;;;11.79;51.53;102906.84;5084211;27;48341;-68
2022/01/24 11:56:27;;;;;;;;;54.75;35.75;;;;;11.66;51.89;102895.59;5087812;27;45996;-67
2022/01/24 11:59:22;;;;;;;;;38.50;33.25;;;;;11.75;52.57;102907.81;5074227;27;45466;-67
2022/01/24 12:02:06;;;;;;;;;46.25;36.25;;;;;11.70;51.85;102901.72;5092447;27;45452;-67
2022/01/24 12:04:57;;;;;;;;;46.25;36.50;;;;;11.67;52.50;102899.13;5085600;27;45601;-67
2022/01/24 12:07:26;;;;;;;;;40.75;36.25;;;;;11.62;52.22;102901.81;5077762;27;45811;-67
2022/01/24 12:09:53;;;;;;;;;46.25;34.25;;;;;11.52;52.16;102896.66;5087599;27;45479;-67
2022/01/24 12:12:44;;;;;;;;;39.50;32.50;;;;;11.47;52.48;102899.34;5089050;27;45395;-67
2022/01/24 12:15:10;;;;;;;;;47.25;31.25;;;;;11.36;52.80;102894.22;5085806;27;47589;-67
2022/01/24 12:17:50;;;;;;;;;40.00;34.75;;;;;11.31;52.75;102892.53;5088452;27;45433;-67
2022/01/24 12:20:30;;;;;;;;;40.25;35.75;;;;;11.31;53.16;102896.03;5072443;27;45433;-67
2022/01/24 12:23:19;;;;;;;;;40.75;29.50;;;;;11.34;53.15;102893.38;5087960;27;45494;-67
2022/01/24 12:26:16;;;;;;;;;42.75;35.25;;;;;11.38;53.15;102891.56;5092052;27;46555;-67
2022/01/24 12:28:42;;;;;;;;;39.75;31.25;;;;;11.31;53.43;102884.63;5005242;28;45875;-67
2022/01/24 12:31:24;;;;;;;;;39.33;25.00;;;;;11.26;53.23;102879.41;5000862;28;45407;-67
2022/01/24 12:33:54;;;;;;;;;43.25;34.00;;;;;11.25;53.70;102877.69;4986460;28;45808;-68
2022/01/24 12:36:48;;;;;;;;;44.75;33.00;;;;;11.25;53.65;102885.56;5006172;28;46395;-65
2022/01/24 12:39:26;;;;;;;;;40.00;31.00;;;;;11.20;53.75;102885.63;5006430;28;45733;-65
2022/01/24 12:42:07;;;;;;;;;42.50;32.50;;;;;11.18;53.91;102883.91;4999581;28;45505;-68
2022/01/24 12:47:27;;;;;;;;;36.75;28.50;;;;;11.13;53.92;102878.69;5003098;28;46887;-68
2022/01/24 12:49:54;;;;;;;;;45.00;33.75;;;;;11.14;53.99;102875.16;5010988;28;45959;-68
2022/01/24 12:52:22;;;;;;;;;26.00;20.00;;;;;11.17;53.82;102871.63;5009005;28;45417;-68
2022/01/24 12:54:55;;;;;;;;;31.50;24.50;;;;;11.10;53.43;102867.31;5017565;28;46048;-68
2022/01/24 12:57:27;;;;;;;;;29.25;21.25;;;;;11.03;53.28;102858.63;5011321;28;47211;-68
2022/01/24 13:00:03;;;;;;;;;23.75;22.25;;;;;11.00;53.40;102869.19;5006511;28;46042;-68
2022/01/24 13:02:31;;;;;;;;;31.25;23.75;;;;;11.02;53.51;102877.09;5013363;28;45581;-68
2022/01/24 13:05:15;;;;;;;;;31.50;23.25;;;;;10.96;53.40;102873.63;5070553;27;45717;-68